Time;durP1;ratioP1;P1;durP2;ratioP2;P2;SDS_P1;SDS_P2;PMS_P1;PMS_P2;Temp;Humidity;BMP_temperature;BMP_pressure;BME280_temperature;BME280_humidity;BME280_pressure;Samples;Min_cycle;Max_cycle;Signal;HPM_P1;HPM_P2
2022/11/29 00:00:58;;;;;;;18.10;8.77;;;;;;;5.34;100.00;98724.88;5129886;27;20506;-78
2022/11/29 00:03:25;;;;;;;16.42;9.32;;;;;;;5.46;100.00;98734.34;5127275;27;20055;-78
2022/11/29 00:05:52;;;;;;;17.17;9.27;;;;;;;5.44;100.00;98716.69;5118435;27;20051;-78
2022/11/29 00:08:18;;;;;;;16.27;9.38;;;;;;;5.38;100.00;98715.47;5116810;27;20087;-78
2022/11/29 00:10:45;;;;;;;16.17;9.27;;;;;;;5.41;100.00;98707.06;5125237;27;20478;-78
2022/11/29 00:13:11;;;;;;;16.55;9.95;;;;;;;5.41;100.00;98701.66;5118851;27;20048;-78
2022/11/29 00:15:38;;;;;;;19.23;10.00;;;;;;;5.42;100.00;98721.38;5126904;27;20528;-78
2022/11/29 00:18:07;;;;;;;16.42;9.40;;;;;;;5.52;100.00;98729.34;5131909;27;20095;-78
2022/11/29 00:20:35;;;;;;;17.53;9.60;;;;;;;5.52;100.00;98721.25;5123246;27;20048;-78
2022/11/29 00:23:02;;;;;;;22.65;9.70;;;;;;;5.42;100.00;98706.06;5130721;27;20313;-78
2022/11/29 00:25:29;;;;;;;17.83;9.98;;;;;;;5.54;100.00;98727.31;5124293;27;20398;-78
2022/11/29 00:27:55;;;;;;;16.83;9.70;;;;;;;5.39;100.00;98695.59;5122978;27;20051;-78
2022/11/29 00:30:22;;;;;;;21.00;10.10;;;;;;;5.57;100.00;98726.97;5121105;27;20770;-78
2022/11/29 00:32:49;;;;;;;16.48;9.43;;;;;;;5.50;100.00;98722.25;5126768;27;20047;-78
2022/11/29 00:35:17;;;;;;;20.58;10.18;;;;;;;5.48;100.00;98718.06;5124792;27;20097;-78
2022/11/29 00:37:43;;;;;;;20.17;10.60;;;;;;;5.65;100.00;98727.03;5125832;27;20483;-78
2022/11/29 00:40:11;;;;;;;17.55;9.88;;;;;;;5.42;100.00;98708.75;5128728;27;20065;-78
2022/11/29 00:42:37;;;;;;;16.55;10.48;;;;;;;5.49;100.00;98715.19;5127142;27;20054;-78
2022/11/29 00:45:05;;;;;;;24.63;10.68;;;;;;;5.41;100.00;98700.84;5129529;27;20043;-78
2022/11/29 00:47:31;;;;;;;18.60;10.65;;;;;;;5.43;100.00;98706.91;5127525;27;20043;-78
2022/11/29 00:49:58;;;;;;;16.45;9.75;;;;;;;5.49;100.00;98722.41;5119301;27;20050;-78
2022/11/29 00:52:26;;;;;;;16.02;10.18;;;;;;;5.50;100.00;98716.84;5125645;27;20398;-78
2022/11/29 00:54:52;;;;;;;17.48;10.70;;;;;;;5.57;100.00;98732.38;5128805;27;20417;-79
2022/11/29 00:57:19;;;;;;;17.48;10.05;;;;;;;5.45;100.00;98719.22;5132595;27;20074;-78
2022/11/29 00:59:45;;;;;;;24.13;10.05;;;;;;;5.59;100.00;98733.91;5130456;27;20062;-79
2022/11/29 01:02:12;;;;;;;19.05;10.50;;;;;;;5.53;100.00;98704.06;5124917;27;21085;-79
2022/11/29 01:04:39;;;;;;;19.70;10.57;;;;;;;5.55;100.00;98727.16;5127611;27;20067;-79
2022/11/29 01:07:05;;;;;;;18.42;10.13;;;;;;;5.57;100.00;98727.84;5123780;27;20054;-78
2022/11/29 01:09:33;;;;;;;17.58;10.75;;;;;;;5.59;100.00;98733.09;5128268;27;20130;-78
2022/11/29 01:12:00;;;;;;;16.85;9.95;;;;;;;5.59;100.00;98728.53;5127286;27;20049;-78
2022/11/29 01:14:26;;;;;;;18.38;9.95;;;;;;;5.58;100.00;98737.59;5126891;27;20058;-79
2022/11/29 01:16:53;;;;;;;20.42;9.77;;;;;;;5.59;100.00;98730.38;5124586;27;20054;-78
2022/11/29 01:19:19;;;;;;;17.73;10.18;;;;;;;5.43;100.00;98718.50;5126887;27;20047;-78
2022/11/29 01:21:46;;;;;;;17.55;10.65;;;;;;;5.41;100.00;98703.53;5121252;27;20043;-79
2022/11/29 01:24:13;;;;;;;23.50;10.15;;;;;;;5.64;100.00;98741.50;5130094;27;20490;-79
2022/11/29 01:26:40;;;;;;;17.70;10.18;;;;;;;5.55;100.00;98726.31;5125730;27;20055;-79
2022/11/29 01:29:07;;;;;;;21.05;10.25;;;;;;;5.57;100.00;98718.91;5128125;27;20054;-79
2022/11/29 01:31:35;;;;;;;18.92;10.20;;;;;;;5.61;100.00;98717.56;5130232;27;20138;-78
2022/11/29 01:34:03;;;;;;;20.80;10.85;;;;;;;5.61;100.00;98744.53;5126082;27;20055;-78
2022/11/29 01:36:31;;;;;;;24.25;11.07;;;;;;;5.47;100.00;98719.88;5126692;27;20043;-78
2022/11/29 01:38:59;;;;;;;18.85;10.27;;;;;;;5.60;100.00;98730.22;5127063;27;20474;-78
2022/11/29 01:41:27;;;;;;;13.93;9.50;;;;;;;5.50;100.00;98721.41;5131404;27;20038;-79
2022/11/29 01:43:59;;;;;;;19.08;9.55;;;;;;;5.62;100.00;98741.69;5131792;27;20150;-79
2022/11/29 01:46:27;;;;;;;23.70;10.27;;;;;;;5.61;100.00;98741.84;5130177;27;20482;-79
2022/11/29 01:48:58;;;;;;;19.80;10.20;;;;;;;5.59;100.00;98725.81;5131534;27;20142;-79
2022/11/29 01:51:27;;;;;;;23.15;11.23;;;;;;;5.79;100.00;98739.03;5131054;27;20474;-79
2022/11/29 01:53:54;;;;;;;22.27;10.68;;;;;;;5.75;100.00;98733.13;5128725;27;20134;-78
2022/11/29 01:56:22;;;;;;;21.85;10.98;;;;;;;5.74;100.00;98739.53;5124582;27;20043;-79
2022/11/29 01:58:48;;;;;;;22.77;11.10;;;;;;;5.64;100.00;98723.47;5123580;27;20069;-78
2022/11/29 02:01:17;;;;;;;17.58;11.07;;;;;;;5.65;100.00;98711.69;5123121;27;20047;-78
2022/11/29 02:03:47;;;;;;;23.65;11.45;;;;;;;5.63;100.00;98723.63;5127169;27;20118;-79
2022/11/29 02:06:15;;;;;;;21.25;10.15;;;;;;;5.64;100.00;98738.81;5129592;27;20074;-78
2022/11/29 02:08:42;;;;;;;25.20;12.18;;;;;;;5.61;100.00;98731.88;5125652;27;20070;-78
2022/11/29 02:11:45;;;;;;;20.73;10.93;;;;;;;5.45;100.00;98704.88;5130286;27;20047;-78
2022/11/29 02:14:25;;;;;;;16.80;9.98;;;;;;;5.62;100.00;98735.44;5130191;27;20201;-79
2022/11/29 02:17:00;;;;;;;17.42;9.40;;;;;;;5.50;100.00;98718.72;5125057;27;20050;-78
2022/11/29 02:19:56;;;;;;;18.73;10.10;;;;;;;5.58;100.00;98740.31;5127590;27;20043;-79
2022/11/29 02:22:30;;;;;;;16.70;10.93;;;;;;;5.53;100.00;98737.25;5106961;27;20497;-79
2022/11/29 02:25:21;;;;;;;19.80;10.43;;;;;;;5.60;100.00;98738.31;5129102;27;20062;-79
2022/11/29 02:28:23;;;;;;;22.00;11.27;;;;;;;5.71;100.00;98741.72;5127997;27;20047;-78
2022/11/29 02:31:08;;;;;;;21.55;10.82;;;;;;;5.64;100.00;98722.63;5116833;27;20050;-79
2022/11/29 02:33:59;;;;;;;25.17;13.35;;;;;;;5.62;100.00;98724.66;5124758;27;20466;-79
2022/11/29 02:37:02;;;;;;;24.98;12.02;;;;;;;5.70;100.00;98743.56;5126979;27;20039;-79
2022/11/29 02:39:59;;;;;;;23.13;12.73;;;;;;;5.60;100.00;98721.25;5128375;27;20050;-79
2022/11/29 02:42:50;;;;;;;22.83;12.02;;;;;;;5.62;100.00;98708.47;5127699;27;20073;-79
2022/11/29 02:45:41;;;;;;;24.58;11.93;;;;;;;5.61;100.00;98721.09;5131348;27;20050;-79
2022/11/29 02:48:23;;;;;;;25.65;12.80;;;;;;;5.59;100.00;98725.00;5129849;27;20501;-79
2022/11/29 02:50:57;;;;;;;29.58;12.45;;;;;;;5.59;100.00;98722.28;5127226;27;20057;-79
2022/11/29 02:53:30;;;;;;;22.55;12.45;;;;;;;5.74;100.00;98744.09;5127409;27;20046;-79
2022/11/29 02:56:05;;;;;;;19.67;11.25;;;;;;;5.66;100.00;98726.88;5126946;27;20059;-78
2022/11/29 02:58:39;;;;;;;24.83;12.80;;;;;;;5.65;100.00;98719.78;5129449;27;20150;-79
2022/11/29 03:01:11;;;;;;;23.02;11.57;;;;;;;5.82;100.00;98754.88;5131477;27;20061;-79
2022/11/29 03:03:44;;;;;;;20.50;12.38;;;;;;;5.63;100.00;98721.81;5127225;27;20054;-79
2022/11/29 03:06:23;;;;;;;27.25;13.07;;;;;;;5.78;100.00;98754.38;5129108;27;20039;-78
2022/11/29 03:08:59;;;;;;;23.63;12.18;;;;;;;5.67;100.00;98725.88;5122424;27;20134;-79
2022/11/29 03:11:33;;;;;;;28.13;12.95;;;;;;;5.82;100.00;98753.03;5121515;27;20043;-79
2022/11/29 03:14:13;;;;;;;19.27;11.30;;;;;;;5.75;100.00;98737.66;5130278;27;20755;-79
2022/11/29 03:16:46;;;;;;;22.70;12.25;;;;;;;5.80;100.00;98743.44;5123570;27;20043;-78
2022/11/29 03:19:49;;;;;;;24.88;12.35;;;;;;;5.77;100.00;98749.16;5130860;27;20491;-79
2022/11/29 03:22:26;;;;;;;26.42;12.88;;;;;;;5.74;100.00;98742.22;5129011;27;20055;-79
2022/11/29 03:24:58;;;;;;;20.52;11.43;;;;;;;5.64;100.00;98728.03;5122915;27;20051;-78
2022/11/29 03:27:35;;;;;;;24.63;12.52;;;;;;;5.74;100.00;98738.69;5130654;27;20035;-79
2022/11/29 03:30:06;;;;;;;26.15;12.00;;;;;;;5.73;100.00;98753.19;5132532;27;20047;-78
2022/11/29 03:32:43;;;;;;;24.55;12.23;;;;;;;5.72;100.00;98749.66;5135145;27;20054;-78
2022/11/29 03:35:16;;;;;;;28.98;12.50;;;;;;;5.80;100.00;98754.22;5132854;27;20450;-79
2022/11/29 03:37:54;;;;;;;26.38;12.50;;;;;;;5.81;100.00;98761.28;5132204;27;20039;-78
2022/11/29 03:40:26;;;;;;;21.05;11.25;;;;;;;5.77;100.00;98763.47;5128762;27;20051;-79
2022/11/29 03:43:00;;;;;;;20.33;11.18;;;;;;;5.75;100.00;98752.00;5132548;27;20048;-79
2022/11/29 03:45:32;;;;;;;20.75;11.77;;;;;;;5.64;100.00;98744.22;5128559;27;20044;-79
2022/11/29 03:48:03;;;;;;;23.42;11.63;;;;;;;5.85;100.00;98765.34;5130770;27;20062;-79
2022/11/29 03:50:36;;;;;;;28.92;14.23;;;;;;;5.90;100.00;98756.75;5133623;27;20490;-79
2022/11/29 03:53:13;;;;;;;19.77;11.52;;;;;;;5.66;100.00;98743.03;5132194;27;20047;-78
2022/11/29 03:55:54;;;;;;;25.55;12.73;;;;;;;5.76;100.00;98764.47;5134193;27;20136;-79
2022/11/29 03:58:35;;;;;;;26.20;12.30;;;;;;;5.74;100.00;98771.06;5125001;27;20515;-79
2022/11/29 04:01:33;;;;;;;25.13;12.35;;;;;;;5.66;100.00;98756.53;5130223;27;20047;-79
2022/11/29 04:04:24;;;;;;;21.63;12.20;;;;;;;5.83;100.00;98761.97;5129151;27;20058;-78
2022/11/29 04:07:06;;;;;;;25.23;13.57;;;;;;;5.75;100.00;98770.91;5132447;27;20051;-78
2022/11/29 04:09:47;;;;;;;31.23;13.90;;;;;;;5.65;100.00;98762.09;5127948;27;20486;-79
2022/11/29 04:12:46;;;;;;;25.23;12.60;;;;;;;5.74;100.00;98769.19;5133342;27;20410;-79
2022/11/29 04:15:55;;;;;;;21.40;12.57;;;;;;;5.60;100.00;98753.63;5133188;27;20391;-78
2022/11/29 04:18:52;;;;;;;24.63;12.57;;;;;;;5.75;100.00;98770.03;5127168;27;20406;-79
2022/11/29 04:21:33;;;;;;;27.17;12.35;;;;;;;5.66;100.00;98764.63;5129170;27;20055;-79
2022/11/29 04:24:37;;;;;;;20.80;11.35;;;;;;;5.68;100.00;98770.69;5126973;27;20148;-79
2022/11/29 04:27:37;;;;;;;18.38;10.60;;;;;;;5.74;100.00;98779.97;5130794;27;20055;-78
2022/11/29 04:30:15;;;;;;;18.90;10.50;;;;;;;5.63;100.00;98770.34;5131317;27;20086;-79
2022/11/29 04:33:29;;;;;;;18.90;10.93;;;;;;;5.62;100.00;98768.66;5128169;27;20455;-79
2022/11/29 04:36:25;;;;;;;24.75;11.27;;;;;;;5.77;100.00;98789.63;5121921;27;20051;-79
2022/11/29 04:39:30;;;;;;;19.55;11.32;;;;;;;5.72;100.00;98783.84;5125338;27;20445;-79
2022/11/29 04:42:33;;;;;;;21.25;11.07;;;;;;;5.80;100.00;98800.91;5130502;27;20505;-78
2022/11/29 04:45:37;;;;;;;19.20;10.98;;;;;;;5.65;100.00;98778.28;5129278;27;20043;-78
2022/11/29 04:48:20;;;;;;;22.25;11.63;;;;;;;5.85;100.00;98798.56;5086739;27;20054;-78
2022/11/29 04:50:59;;;;;;;19.98;11.63;;;;;;;5.72;100.00;98779.31;5135625;27;20039;-78
2022/11/29 04:53:35;;;;;;;19.88;11.18;;;;;;;5.67;100.00;98787.91;5119434;27;20050;-78
2022/11/29 04:56:13;;;;;;;22.25;11.88;;;;;;;5.74;100.00;98790.78;5134950;27;20532;-78
2022/11/29 04:58:48;;;;;;;27.05;13.13;;;;;;;5.73;100.00;98777.44;5133784;27;20061;-78
2022/11/29 05:01:23;;;;;;;23.90;11.98;;;;;;;5.74;100.00;98788.06;5135691;27;20043;-78
2022/11/29 05:03:58;;;;;;;23.33;11.95;;;;;;;5.84;100.00;98812.19;5114441;28;20126;-78
2022/11/29 05:06:32;;;;;;;29.42;14.05;;;;;;;5.66;100.00;98777.25;5131966;27;20058;-78
2022/11/29 05:09:10;;;;;;;22.08;12.30;;;;;;;5.67;100.00;98792.44;5131681;27;20058;-79
2022/11/29 05:11:50;;;;;;;20.05;11.23;;;;;;;5.81;100.00;98808.00;5133159;27;20384;-78
2022/11/29 05:14:24;;;;;;;21.63;11.82;;;;;;;5.82;100.00;98817.75;5127041;27;20051;-79
2022/11/29 05:17:06;;;;;;;21.80;11.55;;;;;;;5.76;100.00;98813.03;5126908;27;20058;-79
2022/11/29 05:19:49;;;;;;;20.92;12.43;;;;;;;5.74;100.00;98800.72;5128463;27;20050;-77
2022/11/29 05:22:31;;;;;;;24.08;12.18;;;;;;;5.85;100.00;98811.22;5131236;27;20055;-78
2022/11/29 05:25:10;;;;;;;22.13;12.38;;;;;;;5.76;100.00;98804.94;5128156;27;20047;-79
2022/11/29 05:27:47;;;;;;;24.33;12.00;;;;;;;5.82;100.00;98820.47;5129983;27;20045;-86
2022/11/29 05:30:16;;;;;;;25.90;12.15;;;;;;;5.82;100.00;98822.31;5134979;27;20130;-79
2022/11/29 05:32:56;;;;;;;21.35;12.80;;;;;;;5.75;100.00;98822.16;5134498;27;20050;-79
2022/11/29 05:35:50;;;;;;;22.92;11.20;;;;;;;5.88;100.00;98826.22;5131270;27;20047;-79
2022/11/29 05:38:31;;;;;;;23.45;11.90;;;;;;;5.89;100.00;98825.22;5125792;27;20063;-80
2022/11/29 05:41:11;;;;;;;21.55;12.00;;;;;;;5.70;100.00;98804.75;5132438;27;20061;-79
2022/11/29 05:43:51;;;;;;;23.27;11.77;;;;;;;5.77;100.00;98825.50;5128121;27;20071;-79
2022/11/29 05:46:26;;;;;;;30.10;13.63;;;;;;;5.76;100.00;98809.50;5123564;27;20516;-80
2022/11/29 05:49:00;;;;;;;20.48;11.48;;;;;;;5.73;100.00;98805.25;5130475;27;20410;-79
2022/11/29 05:51:39;;;;;;;26.02;12.23;;;;;;;5.82;100.00;98830.41;5130484;27;20039;-79
2022/11/29 05:54:14;;;;;;;35.08;13.60;;;;;;;5.85;100.00;98830.94;5131623;27;20046;-79
2022/11/29 05:56:50;;;;;;;29.13;13.05;;;;;;;5.71;100.00;98809.16;5128299;27;20486;-80
2022/11/29 05:59:21;;;;;;;28.45;11.95;;;;;;;5.81;100.00;98836.81;5128858;27;20383;-79
2022/11/29 06:01:58;;;;;;;39.08;11.98;;;;;;;5.84;100.00;98844.56;5139011;27;20074;-79
2022/11/29 06:04:39;;;;;;;45.30;13.50;;;;;;;5.78;100.00;98829.03;5123853;27;20043;-79
2022/11/29 06:07:15;;;;;;;40.42;11.93;;;;;;;5.84;100.00;98836.47;5117721;27;20051;-79
2022/11/29 06:09:47;;;;;;;45.30;13.85;;;;;;;5.87;100.00;98836.16;5116030;27;20043;-79
2022/11/29 06:12:15;;;;;;;65.50;15.07;;;;;;;5.93;100.00;98842.75;5116025;27;20092;-79
2022/11/29 06:14:57;;;;;;;54.58;15.05;;;;;;;6.05;100.00;98846.88;5124965;27;20039;-79
2022/11/29 06:17:39;;;;;;;48.80;13.60;;;;;;;5.92;100.00;98841.94;5126244;27;20042;-79
2022/11/29 06:20:35;;;;;;;58.47;13.85;;;;;;;6.05;100.00;98859.53;5131739;27;20051;-79
2022/11/29 06:23:17;;;;;;;49.97;13.90;;;;;;;6.14;100.00;98861.25;5131791;27;20047;-79
2022/11/29 06:26:00;;;;;;;77.15;12.70;;;;;;;5.95;100.00;98847.00;5132030;27;20039;-79
2022/11/29 06:28:38;;;;;;;60.45;12.75;;;;;;;5.99;100.00;98845.69;5128701;27;20039;-79
2022/11/29 06:31:15;;;;;;;57.60;12.43;;;;;;;6.05;100.00;98854.97;5129964;27;20054;-79
2022/11/29 06:33:49;;;;;;;54.20;11.68;;;;;;;6.08;100.00;98859.22;5126322;27;20043;-80
2022/11/29 06:36:20;;;;;;;67.57;12.35;;;;;;;5.92;100.00;98841.94;5129747;27;20047;-79
2022/11/29 06:38:47;;;;;;;68.15;12.38;;;;;;;6.01;100.00;98859.03;5127298;27;20035;-79
2022/11/29 06:41:18;;;;;;;48.72;11.35;;;;;;;6.00;100.00;98878.91;5129778;27;20051;-79
2022/11/29 06:43:46;;;;;;;86.72;12.45;;;;;;;5.93;100.00;98864.34;5133207;27;20077;-79
2022/11/29 06:46:22;;;;;;;93.40;11.98;;;;;;;5.96;100.00;98877.50;5129727;27;20043;-79
2022/11/29 06:48:53;;;;;;;61.78;11.25;;;;;;;5.95;100.00;98884.78;5127480;27;20043;-80
2022/11/29 06:51:29;;;;;;;60.47;12.05;;;;;;;5.98;100.00;98884.47;5126878;27;20125;-79
2022/11/29 06:54:04;;;;;;;51.38;10.43;;;;;;;6.02;100.00;98882.28;5130714;27;20051;-79
2022/11/29 06:56:41;;;;;;;51.92;11.82;;;;;;;6.08;100.00;98889.75;5130750;27;20052;-80
2022/11/29 06:59:21;;;;;;;78.55;14.75;;;;;;;5.95;100.00;98881.25;5135352;27;20042;-79
2022/11/29 07:01:53;;;;;;;86.15;12.93;;;;;;;5.91;100.00;98869.06;5126165;27;20049;-79
2022/11/29 07:04:45;;;;;;;94.60;12.45;;;;;;;5.95;100.00;98894.72;5127406;27;20197;-79
2022/11/29 07:07:15;;;;;;;89.97;12.70;;;;;;;5.81;100.00;98869.19;5124280;27;20043;-79
2022/11/29 07:09:43;;;;;;;60.25;11.57;;;;;;;5.95;100.00;98900.13;5129462;27;20122;-79
2022/11/29 07:12:11;;;;;;;68.85;11.73;;;;;;;5.92;100.00;98909.38;5126701;27;20043;-79
2022/11/29 07:14:42;;;;;;;66.45;12.10;;;;;;;5.91;100.00;98896.06;5125571;27;20039;-79
2022/11/29 07:17:17;;;;;;;94.60;12.25;;;;;;;5.97;100.00;98908.94;5121721;27;20550;-79
2022/11/29 07:19:57;;;;;;;92.03;12.75;;;;;;;5.83;100.00;98897.69;5131446;27;20039;-79
2022/11/29 07:22:42;;;;;;;48.88;10.73;;;;;;;5.93;100.00;98896.72;5114787;27;20047;-79
2022/11/29 07:25:21;;;;;;;72.95;12.05;;;;;;;5.80;100.00;98887.22;5123997;27;20059;-80
2022/11/29 07:27:58;;;;;;;61.28;11.50;;;;;;;5.87;100.00;98895.50;5126625;27;20692;-79
2022/11/29 07:30:30;;;;;;;91.13;11.57;;;;;;;6.05;100.00;98913.50;5131188;27;20047;-79
2022/11/29 07:33:06;;;;;;;61.97;11.93;;;;;;;5.94;100.00;98909.22;5121275;27;20047;-79
2022/11/29 07:35:40;;;;;;;40.08;10.48;;;;;;;6.02;100.00;98922.78;5121455;27;20047;-79
2022/11/29 07:38:19;;;;;;;35.97;10.18;;;;;;;5.88;100.00;98897.22;5125651;27;20130;-79
2022/11/29 07:40:55;;;;;;;44.75;11.50;;;;;;;5.96;100.00;98905.38;5130297;27;20036;-79
2022/11/29 07:43:33;;;;;;;32.50;11.00;;;;;;;6.01;100.00;98908.44;5118746;27;20050;-79
2022/11/29 07:46:00;;;;;;;32.90;9.95;;;;;;;5.93;100.00;98903.00;5126367;27;20126;-79
2022/11/29 07:48:26;;;;;;;30.45;9.63;;;;;;;6.03;100.00;98911.81;5130350;27;20048;-79
2022/11/29 07:50:54;;;;;;;28.98;10.07;;;;;;;6.05;100.00;98925.13;5128125;27;20491;-79
2022/11/29 07:53:23;;;;;;;27.35;8.27;;;;;;;5.94;100.00;98911.91;5130314;27;20130;-79
2022/11/29 07:55:50;;;;;;;29.60;10.38;;;;;;;6.09;100.00;98925.69;5126287;27;20050;-79
2022/11/29 07:58:18;;;;;;;40.53;10.60;;;;;;;6.00;100.00;98900.50;5128503;27;20052;-79
2022/11/29 08:00:45;;;;;;;27.85;9.52;;;;;;;6.09;100.00;98936.47;5117715;27;20135;-79
2022/11/29 08:03:12;;;;;;;29.35;10.60;;;;;;;6.09;100.00;98926.50;5116127;27;20071;-79
2022/11/29 08:05:39;;;;;;;33.55;10.65;;;;;;;6.03;100.00;98929.88;5110628;27;20559;-79
2022/11/29 08:08:07;;;;;;;23.95;9.57;;;;;;;6.01;100.00;98938.13;5117811;27;20051;-79
2022/11/29 08:10:35;;;;;;;28.33;10.13;;;;;;;6.11;100.00;98934.44;5129264;27;20042;-79
2022/11/29 08:13:01;;;;;;;21.75;9.63;;;;;;;6.06;100.00;98932.25;5127776;27;20051;-79
2022/11/29 08:15:28;;;;;;;21.48;9.95;;;;;;;6.02;100.00;98923.63;5130960;27;20054;-79
2022/11/29 08:17:55;;;;;;;69.35;35.42;;;;;;;6.16;100.00;98937.53;5130864;27;20085;-79
2022/11/29 08:20:21;;;;;;;83.97;49.40;;;;;;;6.22;100.00;98939.56;5126580;27;20043;-79
2022/11/29 08:22:54;;;;;;;40.50;22.17;;;;;;;6.10;100.00;98928.22;5119429;27;20044;-79
2022/11/29 08:25:21;;;;;;;19.05;9.80;;;;;;;6.20;100.00;98945.13;5119568;27;20054;-79
2022/11/29 08:27:49;;;;;;;18.08;9.77;;;;;;;6.23;100.00;98943.94;5125055;27;20091;-79
2022/11/29 08:30:17;;;;;;;24.90;11.35;;;;;;;6.24;100.00;98953.75;5122290;27;20497;-79
2022/11/29 08:32:44;;;;;;;18.05;8.35;;;;;;;6.28;100.00;98947.03;5126201;27;20043;-78
2022/11/29 08:35:11;;;;;;;36.65;22.70;;;;;;;6.24;100.00;98952.91;5128595;27;20052;-79
2022/11/29 08:37:37;;;;;;;36.25;21.38;;;;;;;6.10;100.00;98935.47;5124086;27;20051;-78
2022/11/29 08:40:04;;;;;;;18.20;9.63;;;;;;;6.16;100.00;98951.03;5124334;27;20126;-79
2022/11/29 08:42:31;;;;;;;18.40;9.57;;;;;;;6.20;100.00;98960.47;5129454;27;20050;-78
2022/11/29 08:44:59;;;;;;;29.70;17.83;;;;;;;6.32;100.00;98966.44;5120874;27;20043;-78
2022/11/29 08:47:37;;;;;;;31.65;14.32;;;;;;;6.32;100.00;98971.81;5122210;27;20115;-79
2022/11/29 08:50:07;;;;;;;28.20;16.80;;;;;;;6.35;100.00;98966.09;5132635;27;20131;-78
2022/11/29 08:55:21;;;;;;;12.55;8.15;;;;;;;6.17;100.00;98947.28;5127815;27;20547;-79
2022/11/29 08:57:48;;;;;;;104.15;47.85;;;;;;;6.40;100.00;98963.78;5125762;27;20047;-78
2022/11/29 09:00:18;;;;;;;92.22;44.80;;;;;;;6.25;100.00;98952.75;5119457;27;20047;-79
2022/11/29 09:02:44;;;;;;;100.90;47.55;;;;;;;6.21;100.00;98962.16;5124716;27;20054;-79
2022/11/29 09:05:11;;;;;;;48.17;21.25;;;;;;;6.37;100.00;98973.03;5121945;27;20082;-78
2022/11/29 09:07:38;;;;;;;14.88;8.20;;;;;;;6.40;100.00;98981.81;5125064;27;20054;-79
2022/11/29 09:10:07;;;;;;;21.95;13.30;;;;;;;6.37;100.00;98972.19;5136610;27;20046;-78
2022/11/29 09:12:34;;;;;;;21.13;13.77;;;;;;;6.55;100.00;98972.94;5138092;27;20503;-78
2022/11/29 09:15:01;;;;;;;16.70;11.50;;;;;;;6.53;100.00;98979.50;5134203;27;20058;-78
2022/11/29 09:17:29;;;;;;;26.80;20.52;;;;;;;6.52;100.00;98986.78;5131898;27;20463;-78
2022/11/29 09:19:55;;;;;;;31.70;23.35;;;;;;;6.52;100.00;98973.25;5137845;27;20042;-78
2022/11/29 09:22:22;;;;;;;52.40;35.72;;;;;;;6.35;100.00;98972.38;5131782;27;20051;-79
2022/11/29 09:24:49;;;;;;;19.70;14.90;;;;;;;6.61;100.00;98992.19;5137445;27;20372;-78
2022/11/29 09:27:15;;;;;;;22.58;15.85;;;;;;;6.60;100.00;98985.94;5128175;27;20149;-78
2022/11/29 09:29:42;;;;;;;25.15;14.98;;;;;;;6.50;100.00;98974.44;5130440;27;20062;-79
2022/11/29 09:32:09;;;;;;;17.88;12.73;;;;;;;6.62;100.00;98980.38;5133120;27;20192;-79
2022/11/29 09:34:37;;;;;;;16.65;10.15;;;;;;;6.58;100.00;98989.81;5132484;27;20047;-79
2022/11/29 09:37:05;;;;;;;16.75;11.43;;;;;;;6.53;100.00;98974.97;5128215;27;20528;-78
2022/11/29 09:39:31;;;;;;;16.60;11.32;;;;;;;6.63;100.00;98993.72;5129768;27;20047;-79
2022/11/29 09:42:08;;;;;;;24.15;16.55;;;;;;;6.70;100.00;98997.47;5132365;27;20059;-79
2022/11/29 09:44:48;;;;;;;19.42;13.55;;;;;;;6.64;100.00;98986.44;5133275;27;20043;-79
2022/11/29 09:47:33;;;;;;;21.83;12.68;;;;;;;6.68;100.00;99009.44;5133223;27;20697;-79
2022/11/29 09:50:19;;;;;;;32.60;14.60;;;;;;;6.61;100.00;99001.16;5131419;27;20543;-79
2022/11/29 09:52:53;;;;;;;20.95;11.93;;;;;;;6.60;100.00;99002.16;5130661;27;20073;-79
2022/11/29 09:55:37;;;;;;;24.08;12.65;;;;;;;6.64;100.00;98998.13;5132508;27;20043;-79
2022/11/29 09:58:07;;;;;;;17.70;10.10;;;;;;;6.81;100.00;99015.22;5124388;27;20479;-79
2022/11/29 10:00:38;;;;;;;15.35;9.93;;;;;;;6.63;100.00;98990.19;5131921;27;20362;-79
2022/11/29 10:03:17;;;;;;;18.10;11.15;;;;;;;6.64;100.00;99003.53;5131611;27;20047;-79
2022/11/29 10:05:49;;;;;;;21.23;9.98;;;;;;;6.72;100.00;99011.66;5132266;27;20053;-79
2022/11/29 10:08:23;;;;;;;17.02;11.00;;;;;;;6.85;100.00;99018.44;5132237;27;20051;-79
2022/11/29 10:10:57;;;;;;;16.13;10.20;;;;;;;6.73;100.00;99007.09;5132071;27;20059;-79
2022/11/29 10:13:27;;;;;;;52.10;12.90;;;;;;;6.83;100.00;99024.00;5131873;27;20239;-79
2022/11/29 10:15:57;;;;;;;15.95;9.23;;;;;;;6.81;100.00;99020.63;5131439;27;20062;-79
2022/11/29 10:18:31;;;;;;;16.67;9.13;;;;;;;6.87;100.00;99011.88;5132000;27;20039;-79
2022/11/29 10:21:06;;;;;;;16.08;9.18;;;;;;;6.84;100.00;99016.75;5132433;27;20054;-79
2022/11/29 10:23:36;;;;;;;16.27;9.02;;;;;;;6.91;100.00;99021.34;5131220;27;20042;-79
2022/11/29 10:26:06;;;;;;;20.83;9.32;;;;;;;6.87;100.00;99011.03;5131959;27;20049;-79
2022/11/29 10:28:36;;;;;;;13.40;8.20;;;;;;;6.77;100.00;98994.94;5131628;27;20043;-79
2022/11/29 10:31:13;;;;;;;16.15;8.30;;;;;;;6.92;100.00;99024.88;5127700;27;20046;-79
2022/11/29 10:33:41;;;;;;;13.32;8.35;;;;;;;6.87;100.00;99008.31;5131058;27;20043;-79
2022/11/29 10:36:26;;;;;;;10.20;6.50;;;;;;;6.77;100.00;99018.41;5135725;27;20546;-79
2022/11/29 10:38:57;;;;;;;10.30;6.88;;;;;;;6.75;100.00;99010.47;5130661;27;20092;-79
2022/11/29 10:41:25;;;;;;;13.20;6.82;;;;;;;6.86;100.00;99018.25;5137409;27;20401;-79
2022/11/29 10:43:54;;;;;;;9.57;6.68;;;;;;;6.65;100.00;98983.59;5132535;27;20047;-79
2022/11/29 10:46:28;;;;;;;11.63;6.47;;;;;;;6.67;100.00;99002.34;5125112;27;20084;-79
2022/11/29 10:48:55;;;;;;;14.77;7.25;;;;;;;6.62;100.00;98991.19;5131682;27;20043;-79
2022/11/29 10:51:24;;;;;;;9.77;6.97;;;;;;;6.69;100.00;99009.28;5131326;27;20047;-79
2022/11/29 10:53:53;;;;;;;11.60;7.18;;;;;;;6.63;100.00;99003.69;5132770;27;20126;-79
2022/11/29 10:56:26;;;;;;;10.88;6.97;;;;;;;6.61;100.00;99008.38;5131957;27;20050;-79
2022/11/29 10:58:55;;;;;;;13.48;6.90;;;;;;;6.53;100.00;98993.00;5130948;27;20051;-79
2022/11/29 11:01:23;;;;;;;10.68;6.90;;;;;;;6.78;100.00;99022.81;5133060;27;20058;-79
2022/11/29 11:03:51;;;;;;;12.65;7.35;;;;;;;6.55;100.00;98999.94;5133387;27;20050;-79
2022/11/29 11:06:20;;;;;;;11.20;7.47;;;;;;;6.47;100.00;99004.47;5128961;27;20043;-79
2022/11/29 11:08:52;;;;;;;24.85;11.15;;;;;;;6.65;100.00;98998.97;5131463;27;20050;-79
2022/11/29 11:11:26;;;;;;;29.70;15.75;;;;;;;6.75;100.00;99018.59;5123402;27;20043;-79
2022/11/29 11:14:02;;;;;;;13.20;7.53;;;;;;;6.82;100.00;99027.72;5130055;27;20051;-79
2022/11/29 11:16:29;;;;;;;15.93;7.50;;;;;;;6.60;100.00;99006.72;5131737;27;20047;-79
2022/11/29 11:18:56;;;;;;;13.23;7.07;;;;;;;6.64;100.00;99013.47;5130673;27;20046;-80
2022/11/29 11:21:25;;;;;;;15.90;8.13;;;;;;;6.77;100.00;99021.13;5135963;27;20054;-80
2022/11/29 11:23:55;;;;;;;15.57;7.35;;;;;;;6.72;100.00;99010.81;5130339;27;20053;-79
2022/11/29 11:26:23;;;;;;;12.82;7.53;;;;;;;6.74;100.00;99011.47;5130748;27;20039;-79
2022/11/29 11:28:53;;;;;;;12.52;7.20;;;;;;;6.77;100.00;99013.84;5130867;27;20054;-79
2022/11/29 11:31:28;;;;;;;13.07;6.78;;;;;;;6.74;100.00;99006.06;5131013;27;20047;-79
2022/11/29 11:33:55;;;;;;;13.93;6.75;;;;;;;6.64;100.00;98994.56;5140909;27;20054;-80
2022/11/29 11:36:24;;;;;;;16.42;7.35;;;;;;;6.57;100.00;98996.25;5130540;27;20134;-80
2022/11/29 11:38:52;;;;;;;11.63;7.15;;;;;;;6.66;100.00;99009.59;5133172;27;20074;-79
2022/11/29 11:42:35;;;;;;;14.48;7.38;;;;;;;6.81;100.00;99015.22;5130754;27;20039;-79
2022/11/29 11:44:37;;;;;;;13.63;7.25;;;;;;;6.71;100.00;98995.59;5130809;27;20039;-79
2022/11/29 11:47:05;;;;;;;12.02;6.75;;;;;;;6.93;100.00;99018.47;5120076;27;20198;-79
2022/11/29 11:49:36;;;;;;;14.13;6.75;;;;;;;6.88;100.00;99008.16;5133385;27;20043;-79
2022/11/29 11:52:04;;;;;;;12.27;6.85;;;;;;;6.88;100.00;99016.25;5136670;27;20047;-79
2022/11/29 11:54:32;;;;;;;10.60;6.35;;;;;;;6.97;100.00;99029.78;5134013;27;20505;-83